»·PEaware :: N35MU KSBA-KBUR

N35MU :: KSBA-KBUR

FLIGHT INFORMATION

Flight Status: Arrived
Operator: Privately registered:
United States
More flights under this callsign
Pilot: Tim M. (20242)
Aircraft: CESSNA 172 SKYHAWK
(C172)
More flights by this aircraft type
Origin: KSBA Santa Barbara Mun
United States
Destination: KBUR Bob Hope-Burbank
United States
More flights between these airports :: More routes between these airports
Route: GOLET FIM
File this flight plan on PilotEdge
Remarks: VFR - CAT-08
Altitude:
(Current/Filed)
7,500ft
Speed:
(Current/Filed)
115kts
Departed: 07-Sep-18 11:23 AM
Arrived: 07-Sep-18 12:11 PM
Distance/Time
Traveled:
75nm/0:48
Distance/Time
To Go:
Arrived

Flight Plot

Page will automatically refresh every two minutes.

Flight plan parsing failed; only flown route is shown


Map Options




Map Legend


Flown Route
Filed Route
Departure Airport
Arrival Airport
Navaid (VOR, NDB)
Fix

Horizontal Profiles

Position Reports

Time Latitude Longitude Heading Altitude Ground
Speed
07-Sep-18 11:00 34.432569 -119.835085 71 14ft 0kts
07-Sep-18 11:01 34.432569 -119.835085 71 14ft 0kts
07-Sep-18 11:02 34.432569 -119.835085 71 14ft 0kts
07-Sep-18 11:03 34.432569 -119.835085 71 14ft 0kts
07-Sep-18 11:04 34.432569 -119.835085 71 14ft 0kts
07-Sep-18 11:05 34.432569 -119.835085 71 14ft 0kts
07-Sep-18 11:06 34.432569 -119.835085 71 14ft 0kts
07-Sep-18 11:07 34.432569 -119.835085 71 14ft 0kts
07-Sep-18 11:08 34.432569 -119.835085 71 14ft 0kts
07-Sep-18 11:09 34.432569 -119.835085 71 14ft 0kts
07-Sep-18 11:10 34.432569 -119.835085 71 14ft 0kts
07-Sep-18 11:11 34.432569 -119.835085 71 14ft 0kts
07-Sep-18 11:12 34.432569 -119.835085 71 14ft 0kts
07-Sep-18 11:13 34.432569 -119.835085 71 14ft 0kts
07-Sep-18 11:14 34.432569 -119.835085 71 14ft 0kts
07-Sep-18 11:15 34.432569 -119.835085 71 14ft 0kts
07-Sep-18 11:16 34.432569 -119.835085 71 14ft 0kts
07-Sep-18 11:17 34.432569 -119.835085 71 14ft 0kts
07-Sep-18 11:18 34.432569 -119.835085 71 14ft 0kts
07-Sep-18 11:19 34.432569 -119.835085 71 14ft 0kts
07-Sep-18 11:20 34.432569 -119.835085 71 14ft 0kts
07-Sep-18 11:21 34.432277 -119.834985 212 14ft 9kts
07-Sep-18 11:22 34.429015 -119.834832 114 10ft 15kts
07-Sep-18 11:23 34.428707 -119.834635 177 10ft 0kts
07-Sep-18 11:24 34.427905 -119.835134 265 10ft 22kts
07-Sep-18 11:25 34.427708 -119.849254 266 222ft 75kts
07-Sep-18 11:26 34.423662 -119.876097 251 870ft 95kts
07-Sep-18 11:27 34.421140 -119.911465 262 900ft 113kts
07-Sep-18 11:28 34.418827 -119.949620 262 941ft 113kts
07-Sep-18 11:29 34.405082 -119.976123 176 1024ft 102kts
07-Sep-18 11:30 34.392236 -119.953028 85 1196ft 111kts
07-Sep-18 11:31 34.391669 -119.912245 101 1263ft 128kts
07-Sep-18 11:32 34.385670 -119.869593 101 1263ft 129kts
07-Sep-18 11:33 34.379710 -119.827184 101 1263ft 124kts
07-Sep-18 11:34 34.373968 -119.786025 101 1263ft 123kts
07-Sep-18 11:35 34.368257 -119.745007 101 1263ft 123kts
07-Sep-18 11:36 34.362558 -119.704032 101 1263ft 123kts
07-Sep-18 11:37 34.356865 -119.663049 101 1263ft 123kts
07-Sep-18 11:38 34.351156 -119.621914 101 1263ft 123kts
07-Sep-18 11:39 34.345490 -119.581042 101 1263ft 123kts
07-Sep-18 11:40 34.339852 -119.540059 100 1263ft 123kts
07-Sep-18 11:41 34.334779 -119.498921 100 1263ft 123kts
07-Sep-18 11:42 34.329869 -119.457669 99 1262ft 124kts
07-Sep-18 11:43 34.330799 -119.417295 88 1528ft 114kts
07-Sep-18 11:44 34.332329 -119.379035 87 1864ft 114kts
07-Sep-18 11:45 34.334561 -119.340852 89 2202ft 114kts
07-Sep-18 11:46 34.336445 -119.302459 89 2480ft 115kts
07-Sep-18 11:47 34.338356 -119.263853 89 2738ft 115kts
07-Sep-18 11:48 34.340275 -119.225177 89 2975ft 115kts
07-Sep-18 11:49 34.342180 -119.186630 89 3192ft 115kts
07-Sep-18 11:50 34.344084 -119.147983 88 3420ft 113kts
07-Sep-18 11:51 34.346309 -119.110989 92 3914ft 108kts
07-Sep-18 11:52 34.344820 -119.078008 92 4376ft 109kts
07-Sep-18 11:53 34.345740 -119.044799 88 4800ft 109kts
07-Sep-18 11:54 34.347875 -119.007951 87 5237ft 110kts
07-Sep-18 11:55 34.350394 -118.971183 86 5637ft 110kts
07-Sep-18 11:56 34.353044 -118.934160 86 6007ft 111kts
07-Sep-18 11:57 34.355672 -118.897100 86 6347ft 111kts
07-Sep-18 11:58 34.350695 -118.861053 109 6655ft 110kts
07-Sep-18 11:59 34.340405 -118.826007 109 6944ft 111kts
07-Sep-18 12:00 34.330601 -118.792928 109 7180ft 111kts
07-Sep-18 12:01 34.320839 -118.760057 109 7404ft 111kts
07-Sep-18 12:02 34.310159 -118.724143 109 7508ft 118kts
07-Sep-18 12:03 34.298934 -118.686457 109 7479ft 122kts
07-Sep-18 12:04 34.286821 -118.645867 109 7124ft 129kts
07-Sep-18 12:05 34.274817 -118.605646 109 6855ft 129kts
07-Sep-18 12:06 34.262550 -118.564612 109 6479ft 133kts
07-Sep-18 12:07 34.249613 -118.521445 110 5783ft 138kts
07-Sep-18 12:08 34.236712 -118.478412 110 5088ft 138kts
07-Sep-18 12:09 34.221067 -118.437294 130 4415ft 131kts
07-Sep-18 12:10 34.203113 -118.414450 141 3850ft 73kts
07-Sep-18 12:11 34.193172 -118.399597 52 2803ft 84kts
07-Sep-18 12:12 34.197585 -118.374976 101 1215ft 87kts
07-Sep-18 12:13 34.197769 -118.356440 87 708ft 19kts
07-Sep-18 12:14 34.198720 -118.355379 352 707ft 0kts
07-Sep-18 12:15 34.199092 -118.359014 7 717ft 7kts
07-Sep-18 12:16 34.200740 -118.359099 339 723ft 0kts
07-Sep-18 12:17 34.200740 -118.359099 339 723ft 0kts
07-Sep-18 12:18 34.200740 -118.359099 339 723ft 0kts
07-Sep-18 12:19 34.200740 -118.359099 339 723ft 0kts
07-Sep-18 12:20 34.200740 -118.359099 339 723ft 0kts
07-Sep-18 12:21 34.200740 -118.359099 339 723ft 0kts
07-Sep-18 12:22 34.200740 -118.359099 339 723ft 0kts
07-Sep-18 12:23 34.200740 -118.359099 339 723ft 0kts
07-Sep-18 12:24 34.200740 -118.359099 339 723ft 0kts
07-Sep-18 12:25 34.200740 -118.359099 339 723ft 0kts
07-Sep-18 12:26 34.200740 -118.359099 339 723ft 0kts
07-Sep-18 12:27 34.200740 -118.359099 339 723ft 0kts
07-Sep-18 12:28 34.200740 -118.359099 339 723ft 0kts

Navigation Log

Ident Type
Flight plan parsing failed, navigation log unavailable